Date,TemperatureHighF,TemperatureAvgF,TemperatureLowF,DewpointHighF,DewpointAvgF,DewpointLowF,HumidityHigh,HumidityAvg,HumidityLow,PressureMaxIn,PressureMinIn,WindSpeedMaxMPH,WindSpeedAvgMPH,GustSpeedMaxMPH,PrecipitationSumIn
2013-1-1,15.6,9.6,0.9,9.0,3.3,-99.9,85,78,70,30.38,30.27,9,-7,10,0.00
2013-1-2,28.9,18.4,8.2,27.0,14.3,4.0,94,84,76,30.27,30.12,13,5,17,0.00
2013-1-3,31.0,20.0,10.7,29.0,16.7,7.0,94,87,84,30.40,30.18,18,10,22,0.00
2013-1-4,33.5,24.3,10.7,26.6,20.2,8.0,92,84,75,30.34,30.24,17,8,35,0.00
2013-1-5,39.6,29.7,19.0,36.0,27.0,17.5,95,90,84,30.26,29.99,19,8,24,0.00
2013-1-6,26.1,19.9,14.5,20.0,16.5,11.9,93,87,75,30.37,30.04,19,8,22,0.00
2013-1-7,42.4,30.0,16.5,33.0,24.0,-99.9,92,80,66,30.33,30.08,25,0,28,0.00
2013-1-8,43.5,36.1,26.8,36.3,31.9,24.5,93,85,76,30.10,29.96,21,9,24,0.00
2013-1-9,41.1,36.5,31.5,35.0,32.7,29.0,92,86,74,30.50,30.05,21,8,25,0.00
2013-1-10,41.0,35.7,28.4,39.0,32.2,25.0,98,87,68,30.50,29.81,24,13,28,0.14
2013-1-11,52.9,45.2,38.7,49.0,44.6,38.0,100,97,85,29.81,29.58,16,9,22,0.03
2013-1-12,55.3,31.2,20.1,49.0,25.5,13.0,93,79,74,30.10,29.59,25,16,37,0.00
2013-1-13,20.0,15.1,11.8,14.0,9.5,6.0,85,78,72,30.37,30.02,20,12,25,0.00
2013-1-14,29.5,19.5,9.9,18.0,12.9,6.0,87,76,59,30.55,30.38,12,4,20,0.00
2013-1-15,33.8,24.6,16.5,20.0,16.3,13.0,86,72,52,30.48,30.15,12,5,17,0.00
2013-1-16,42.4,32.0,21.5,39.0,26.3,15.0,96,80,71,30.19,29.90,20,10,24,0.00
2013-1-17,31.6,25.5,17.7,27.0,18.7,14.0,89,76,58,30.48,30.19,17,7,18,0.00
2013-1-18,54.7,40.2,26.4,38.0,32.0,23.0,88,74,53,30.44,29.91,29,12,33,0.00
2013-1-19,51.6,40.8,17.8,40.0,33.4,10.0,86,75,62,30.18,29.79,39,15,48,0.01
2013-1-20,17.4,13.7,9.3,10.0,7.1,3.0,82,75,70,30.43,30.19,29,13,33,0.00
2013-1-21,14.2,6.3,0.9,10.0,-1.3,-8.0,84,71,61,30.44,30.33,24,15,31,0.00
2013-1-22,14.3,8.1,0.1,5.0,-0.4,-5.0,83,69,57,30.52,30.41,13,6,19,0.00
2013-1-23,28.9,18.3,9.0,18.0,8.3,-99.9,74,67,60,30.56,30.21,32,1,35,0.00
2013-1-24,22.2,12.8,4.6,12.0,1.2,-4.0,70,60,46,30.73,30.35,18,11,20,0.00
2013-1-25,33.2,24.3,13.3,23.0,14.8,8.0,78,67,54,30.33,30.07,27,13,34,0.00
2013-1-26,32.0,20.5,6.9,19.0,9.3,-99.9,85,67,50,30.47,30.33,16,-14,22,0.00
2013-1-27,35.7,32.9,30.4,35.0,29.0,19.0,99,87,63,30.32,29.82,21,10,27,0.04
2013-1-28,43.1,36.0,32.1,43.0,35.8,31.9,100,99,98,29.99,29.69,21,7,25,0.12
2013-1-29,55.1,34.8,32.7,55.0,21.8,-99.9,100,86,96,29.71,29.49,19,-118,24,0.26
2013-1-30,33.0,19.8,12.5,32.0,-2.5,-99.9,98,74,86,29.81,29.41,36,-197,38,0.00
2013-1-31,13.7,3.6,-3.2,10.0,-33.3,-99.9,86,55,80,30.39,29.82,25,-322,30,0.00
2013-2-1,13.4,0.4,-7.1,10.0,-50.1,-99.9,88,42,71,30.49,30.19,17,-454,21,0.00
2013-2-2,20.5,13.6,11.3,17.5,4.3,-99.9,92,80,79,30.23,30.07,19,-52,25,0.00
2013-2-3,22.2,12.2,11.6,18.0,-19.8,-99.9,95,61,76,30.20,29.98,23,-279,29,0.00
2013-2-4,23.8,14.0,12.2,20.0,-13.5,-99.9,91,65,80,30.06,29.89,17,-220,20,0.00
2013-2-5,34.1,24.1,13.8,30.0,21.2,11.0,93,88,81,30.18,29.87,19,9,27,0.00
2013-2-6,37.7,27.4,13.7,34.0,24.8,12.0,94,90,80,30.23,30.04,21,7,24,0.00
2013-2-7,35.5,32.6,28.3,35.0,29.5,-99.9,99,94,89,30.18,29.95,22,-12,24,0.21
2013-2-8,28.2,24.1,25.6,27.0,11.1,-99.9,93,80,84,30.42,30.18,18,-98,22,0.00
2013-2-9,30.7,25.6,25.3,28.0,16.1,-99.9,96,85,89,30.39,30.03,23,-50,28,0.00
2013-2-10,44.4,34.6,28.0,44.0,29.0,-99.9,100,91,77,30.04,29.37,36,-26,42,0.27
2013-2-11,33.0,27.5,23.4,29.0,22.2,-99.9,89,82,78,30.15,29.50,36,12,44,0.00
2013-2-12,36.4,26.0,22.4,28.0,14.5,-99.9,87,76,69,30.17,29.92,18,-62,24,0.00
2013-2-13,40.4,31.3,25.3,34.0,20.7,-99.9,94,79,75,29.92,29.68,11,-62,15,0.00
2013-2-14,38.4,32.7,22.5,32.0,27.7,-99.9,97,84,68,30.12,29.68,28,3,32,0.00
2013-2-15,23.4,18.5,14.3,17.0,8.9,-99.9,84,73,64,30.36,30.13,20,-20,24,0.00
2013-2-16,21.4,14.8,11.2,16.0,7.2,-99.9,89,79,75,30.36,30.24,17,-24,21,0.00
2013-2-17,33.6,23.3,12.1,25.0,17.8,9.0,89,79,69,30.25,29.85,23,14,30,0.00
2013-2-18,45.0,31.1,13.6,37.0,26.6,8.0,93,84,72,29.84,29.59,32,16,36,0.01
2013-2-19,14.4,8.1,2.3,7.0,1.3,-99.9,83,76,70,30.43,29.84,31,10,37,0.00
2013-2-20,23.9,11.8,1.8,14.0,0.9,-99.9,81,71,63,30.54,30.43,16,-37,18,0.00
2013-2-21,24.4,18.5,13.0,24.0,11.0,-99.9,96,82,80,30.47,29.99,28,-29,31,0.00
2013-2-22,27.4,20.9,21.3,26.0,2.9,-99.9,96,77,89,30.01,29.86,18,-162,24,0.01
2013-2-23,24.6,18.8,12.0,19.0,11.3,-99.9,94,83,74,30.07,30.00,14,-36,17,0.00
2013-2-24,30.7,19.6,5.6,25.0,16.5,3.0,94,88,77,30.20,30.07,10,4,11,0.00
2013-2-25,35.9,27.8,19.7,31.0,21.6,-99.9,93,85,82,30.21,30.00,13,-26,17,0.00
2013-2-26,33.0,27.2,29.2,30.0,12.1,-99.9,96,77,80,29.99,29.70,25,-110,37,0.00
2013-2-27,31.5,28.4,28.5,30.0,22.1,-99.9,97,90,92,29.93,29.75,20,-39,23,0.01
2013-2-28,33.1,26.5,26.3,29.0,12.3,-99.9,94,79,79,30.18,29.93,17,-107,19,0.00
2013-3-1,27.3,9.9,13.6,25.0,-48.9,-99.9,94,37,71,30.35,30.18,14,-571,16,0.00
2013-3-2,23.6,13.6,8.8,16.0,-2.9,-99.9,91,72,70,30.39,30.28,12,-121,13,0.00
2013-3-3,27.8,15.1,3.7,18.0,-1.4,-99.9,94,71,57,30.28,30.12,14,-111,16,0.00
2013-3-4,29.5,21.6,21.4,25.0,2.0,-99.9,93,71,75,30.14,29.96,33,-151,37,0.00
2013-3-5,29.5,18.7,23.9,28.0,-13.1,-99.9,96,64,87,30.25,29.97,19,-298,22,0.11
2013-3-6,25.0,14.8,9.6,21.0,-12.3,-99.9,92,65,81,30.43,30.25,16,-241,20,0.00
2013-3-7,24.7,7.8,7.7,22.0,-48.0,-99.9,93,41,87,30.49,30.43,13,-545,16,0.01
2013-3-8,34.9,25.1,11.9,31.0,17.5,-99.9,95,86,83,30.48,30.25,23,-30,28,0.01
2013-3-9,37.6,34.3,33.3,37.0,30.2,-99.9,99,93,87,30.25,29.76,24,-16,29,1.08
2013-3-10,39.8,36.2,33.9,40.0,36.1,33.0,100,99,97,29.79,29.59,24,9,34,0.57
2013-3-11,33.8,24.1,27.5,33.0,0.6,-99.9,98,73,88,29.93,29.66,22,-214,28,0.00
2013-3-12,31.1,20.0,23.0,30.0,-6.9,-99.9,95,65,75,30.20,29.93,26,-232,31,0.00
2013-3-13,29.3,22.0,17.8,20.0,9.3,-99.9,86,71,57,30.45,30.20,20,-52,24,0.00
2013-3-14,40.7,25.4,22.3,35.0,5.8,-99.9,92,71,72,30.41,30.11,21,-154,23,0.00
2013-3-15,41.0,25.6,30.1,37.0,-0.2,-99.9,97,70,84,30.11,29.79,17,-239,21,0.00
2013-3-16,32.9,28.1,25.7,33.0,18.9,-99.9,99,85,81,30.24,29.82,22,-64,27,0.00
2013-3-17,31.8,8.4,21.9,26.0,-65.1,-99.9,83,22,70,30.26,29.97,24,-712,28,0.00
2013-3-18,32.1,12.1,17.1,31.0,-41.2,-99.9,97,43,79,29.96,29.71,29,-513,37,0.08
2013-3-19,25.9,16.6,11.2,19.0,-0.3,-99.9,83,67,64,30.26,29.93,26,-98,29,0.00
2013-3-20,20.6,11.8,9.7,11.0,-17.6,-99.9,81,56,65,30.29,30.19,29,-225,34,0.00
2013-3-21,27.0,13.2,5.5,18.0,-15.7,-99.9,86,58,60,30.21,30.11,11,-223,14,0.00
2013-3-22,35.9,23.7,15.5,25.0,5.9,-99.9,85,65,55,30.15,30.09,7,-105,10,0.00
2013-3-23,39.0,31.1,24.6,27.0,21.3,-99.9,90,73,54,30.18,30.07,9,-20,12,0.00
2013-3-24,31.7,29.0,26.9,29.0,27.1,25.0,96,93,82,30.09,29.87,19,10,23,0.01
2013-3-25,33.6,26.8,25.8,27.0,12.6,-99.9,92,74,72,30.24,29.94,21,-86,24,0.00
2013-3-26,36.4,29.8,24.4,27.0,22.4,-99.9,92,79,63,30.37,30.24,17,-14,18,0.00
2013-3-27,42.2,33.4,26.4,29.0,23.0,-99.9,93,71,53,30.42,30.34,9,-18,14,0.00
2013-3-28,46.8,37.1,27.6,34.0,23.6,-99.9,86,66,58,30.41,30.32,8,-42,9,0.00
2013-3-29,53.1,40.9,32.3,41.0,29.2,-99.9,85,70,49,30.36,30.22,11,-17,14,0.00
2013-3-30,50.3,32.1,36.5,45.0,4.7,-99.9,99,65,74,30.22,29.90,16,-226,25,0.01
2013-3-31,45.6,36.5,30.6,43.0,30.0,-99.9,99,84,63,30.06,29.87,32,2,35,0.01
2013-4-1,34.1,22.8,24.2,24.0,-3.2,-99.9,84,59,55,30.32,30.06,21,-187,25,0.00
2013-4-2,37.8,27.2,22.2,24.0,12.2,-99.9,91,68,48,30.41,30.32,18,-67,25,0.00
2013-4-3,43.3,28.8,22.6,27.0,6.9,-99.9,85,58,40,30.50,30.32,12,-116,18,0.00
2013-4-4,56.3,39.4,29.0,41.0,24.5,-99.9,88,64,47,30.32,30.05,17,-40,24,0.00
2013-4-5,50.0,38.1,30.0,33.0,17.9,-99.9,91,58,41,30.26,30.02,23,-81,28,0.00
2013-4-6,62.0,46.0,36.6,51.0,29.5,-99.9,90,64,52,30.01,29.59,30,-53,33,0.05
2013-4-7,60.2,45.2,34.0,45.0,37.1,-99.9,93,77,53,29.99,29.75,16,-7,20,0.00
2013-4-8,70.0,55.2,43.4,56.0,48.8,42.0,98,81,51,29.88,29.66,17,9,25,0.74
2013-4-9,54.2,48.4,46.5,51.0,47.2,46.0,98,95,89,29.89,29.80,25,17,30,0.75
2013-4-10,38.0,36.9,34.6,37.0,35.6,33.5,97,95,92,30.07,29.70,35,17,41,1.17
2013-4-11,45.2,39.2,34.8,44.0,38.1,33.8,98,96,92,29.78,29.59,25,13,41,0.22
2013-4-12,37.4,29.1,33.3,35.2,9.3,-99.9,98,74,80,29.93,29.60,22,-166,25,0.01
2013-4-13,44.0,30.1,31.1,36.0,7.1,-99.9,92,65,63,30.02,29.92,17,-174,24,0.00
2013-4-14,71.2,45.3,35.5,55.0,24.4,-99.9,97,67,49,29.98,29.50,33,-116,40,0.62
2013-4-15,51.3,43.3,38.4,51.0,37.8,-99.9,97,83,60,30.06,29.61,19,-4,25,0.07
2013-4-16,47.6,17.7,30.9,36.0,-36.6,-99.9,93,40,63,30.29,30.04,17,-516,20,0.00
2013-4-17,46.1,30.3,39.1,46.0,1.5,-99.9,98,67,74,30.29,29.79,35,-260,47,1.52
2013-4-18,57.1,43.0,34.1,57.1,39.7,-99.9,100,94,90,29.78,29.39,45,-8,45,1.02
2013-4-19,35.7,24.1,32.1,32.0,-6.2,-99.9,94,63,78,29.82,29.57,29,-264,34,0.18
2013-4-20,45.0,32.9,27.9,31.0,13.4,-99.9,93,62,38,30.40,30.14,9,-97,13,0.16
2013-4-21,57.7,41.3,36.4,45.0,22.6,-99.9,78,63,60,30.43,30.20,28,-88,36,0.00
2013-4-22,64.4,54.2,45.9,49.0,43.8,41.0,91,70,47,30.22,29.97,19,10,27,0.01
2013-4-23,50.8,32.9,34.9,49.0,11.8,-99.9,95,68,71,30.09,29.95,23,-159,26,0.00
2013-4-24,51.2,38.4,29.2,38.0,21.9,-99.9,91,62,40,30.16,30.07,19,-43,36,0.04
2013-4-25,52.5,27.1,32.1,39.0,-14.2,-99.9,91,44,28,30.32,30.10,20,-326,28,0.00
2013-4-26,66.1,54.6,40.6,49.0,42.0,32.0,82,64,48,30.27,30.17,25,14,34,0.00
2013-4-27,62.9,54.8,43.8,48.0,46.1,43.0,96,74,53,30.25,30.00,13,5,21,0.00
2013-4-28,71.0,57.9,41.8,50.0,46.1,40.0,95,68,40,30.00,29.80,10,3,17,0.00
2013-4-29,77.9,62.6,49.8,62.0,51.9,-99.9,95,73,52,29.85,29.62,20,-12,25,0.00
2013-4-30,86.0,74.4,62.3,60.0,54.8,49.0,87,55,30,29.85,29.61,25,15,35,0.07
2013-5-1,73.9,59.4,44.6,54.0,47.8,38.0,80,67,48,30.22,29.85,28,14,34,0.00
2013-5-2,44.4,38.2,33.7,38.0,35.2,32.0,94,89,79,30.35,30.20,26,18,29,0.53
2013-5-3,43.2,36.0,32.8,42.0,33.6,-99.9,97,93,93,30.30,29.97,25,4,25,1.09
2013-5-4,67.6,53.4,43.3,60.0,46.3,-99.9,98,86,73,30.05,29.96,17,-33,23,0.22
2013-5-5,72.8,61.4,48.1,56.0,51.1,45.0,99,73,39,30.07,29.99,12,4,15,0.01
2013-5-6,74.5,62.6,50.9,53.0,47.7,43.0,86,61,33,30.08,29.99,11,3,15,0.00
2013-5-7,77.2,60.2,50.0,55.0,32.6,-99.9,85,47,30,30.06,29.97,9,-93,13,0.00
2013-5-8,77.1,65.5,54.2,59.0,51.2,45.0,89,62,36,30.02,29.95,15,5,21,0.01
2013-5-9,66.3,60.2,56.9,62.0,56.9,-99.9,97,91,82,29.95,29.80,18,-4,23,0.31
2013-5-10,58.6,52.0,47.0,54.0,48.4,44.8,95,87,75,30.02,29.84,21,10,26,0.00
2013-5-11,53.1,46.6,36.5,49.0,30.0,-99.9,96,62,31,30.17,29.92,39,-25,43,0.01
2013-5-12,55.8,44.3,30.3,30.0,27.1,23.0,87,55,31,30.25,30.14,23,10,28,0.00
2013-5-13,67.7,54.6,33.7,45.0,34.4,27.0,85,50,28,30.21,29.89,16,6,23,0.00
2013-5-14,93.3,75.1,56.1,62.0,54.5,44.0,81,52,24,29.89,29.55,25,12,34,0.00
2013-5-15,80.3,70.4,59.6,57.0,44.0,-99.9,65,42,24,29.88,29.63,16,-11,21,0.00
2013-5-16,81.8,70.6,53.9,52.0,47.6,44.0,79,47,27,29.93,29.83,17,4,22,0.00
2013-5-17,79.3,69.4,61.8,63.0,58.0,51.0,90,68,49,29.96,29.86,19,8,23,0.00
2013-5-18,80.7,69.8,57.5,65.0,60.4,54.0,92,74,55,29.99,29.84,19,11,26,0.00
2013-5-19,83.1,71.3,63.8,73.0,65.1,60.0,97,81,62,29.87,29.54,35,15,48,0.41
2013-5-20,79.9,70.0,61.7,64.0,61.3,58.0,96,76,50,29.68,29.56,25,14,32,0.48
2013-5-21,71.5,65.3,59.5,61.0,57.8,54.0,95,78,58,29.67,29.57,19,10,23,0.00
2013-5-22,65.6,60.0,56.2,58.0,55.0,52.0,97,84,64,29.76,29.64,17,6,23,0.10
2013-5-23,65.8,58.4,53.1,58.0,48.3,39.0,97,72,44,30.29,29.78,24,13,27,0.10
2013-5-24,66.9,55.6,42.4,47.0,37.9,34.0,90,54,31,30.45,30.27,17,9,22,0.02
2013-5-25,57.6,45.6,48.3,49.0,31.6,-99.9,93,78,62,30.36,30.24,27,-95,33,0.01
2013-5-26,54.8,50.4,46.5,54.0,48.6,44.0,98,93,84,30.28,30.06,30,15,38,1.14
2013-5-27,59.4,55.9,54.7,59.0,55.6,54.0,100,99,97,30.07,29.91,21,14,26,1.38
2013-5-28,61.9,61.2,60.6,62.0,61.2,61.0,100,100,100,29.71,29.70,9,6,12,0.00
2013-6-18,76.5,70.5,63.8,58.8,57.9,56.5,79,65,50,30.01,29.96,12,7,18,0.00
2013-6-19,81.4,69.6,56.0,60.7,56.1,49.4,87,64,45,30.09,29.98,13,8,20,0.00
2013-6-20,88.8,77.0,63.9,66.5,61.9,57.6,82,61,43,30.06,29.93,19,12,25,0.00
2013-6-21,79.7,73.9,64.2,71.4,68.0,62.1,96,82,69,30.07,29.85,27,15,37,0.04
2013-6-22,88.5,78.0,66.8,77.4,72.5,64.4,96,84,66,30.00,29.81,22,12,30,0.88
2013-6-23,83.8,75.0,66.4,74.2,67.2,63.6,91,78,56,29.95,29.80,23,11,33,0.00
2013-6-24,72.3,68.4,65.9,69.7,66.5,64.5,98,94,81,30.00,29.81,25,9,30,1.12
2013-6-25,83.7,75.5,66.9,76.8,71.9,64.7,98,89,78,29.83,29.70,14,6,18,0.28
2013-6-26,75.6,74.4,70.5,73.1,71.2,64.2,93,90,81,29.73,29.68,25,6,36,0.67
2013-6-29,64.6,64.5,64.4,63.4,63.3,63.2,96,96,96,29.68,29.67,10,9,35,0.01
2013-6-30,76.3,72.5,63.7,60.1,58.3,56.4,77,62,53,30.02,29.96,15,12,35,0.00
2013-7-1,77.8,72.2,60.3,56.8,54.0,50.1,80,54,41,30.10,30.06,17,10,20,0.00
2013-7-2,79.1,69.0,56.9,60.9,57.2,53.6,92,68,42,30.09,30.00,11,4,13,0.00
2013-7-3,77.0,66.3,53.9,59.4,53.7,48.6,92,67,37,30.06,29.98,8,2,10,0.00
2013-7-4,82.4,70.9,58.0,64.6,58.5,53.3,86,67,42,30.03,29.95,8,4,12,0.00
2013-7-5,83.9,73.8,62.9,65.6,62.6,59.5,92,70,47,30.00,29.92,16,7,18,0.00
2013-7-6,86.2,75.1,64.2,69.1,65.7,61.8,93,74,51,29.97,29.88,14,7,20,0.00
2013-7-7,86.6,77.5,66.7,73.1,68.7,64.6,94,76,57,29.92,29.84,14,7,17,0.00
2013-7-8,87.4,81.3,72.1,77.9,74.3,70.3,94,80,69,29.93,29.87,11,5,14,0.48
2013-7-9,85.8,77.6,71.8,78.9,74.3,70.6,98,90,74,29.95,29.81,16,5,18,0.70
2013-7-10,77.7,72.8,64.0,76.1,64.3,57.6,95,76,53,30.01,29.84,14,6,17,0.00
2013-7-11,78.9,67.6,58.9,65.3,54.9,-99.9,93,71,52,30.10,30.01,8,-30,11,0.00
2013-7-12,62.9,61.5,59.8,59.3,58.0,56.9,91,88,86,30.07,30.04,3,0,3,0.00
2013-7-15,83.5,56.3,75.9,75.5,25.3,-99.9,93,63,77,30.19,30.14,5,-278,8,0.00
2013-7-16,81.3,32.6,72.8,75.4,-24.9,-99.9,97,40,81,30.24,30.18,8,-565,9,0.00
2013-7-17,89.0,75.3,72.7,76.9,65.3,-99.9,96,80,61,30.27,30.22,5,-46,7,0.00
2013-7-22,86.3,76.5,66.0,76.2,69.4,60.7,99,79,66,29.81,29.67,24,7,30,0.45
2013-7-23,75.6,68.5,61.1,64.0,60.1,57.0,97,76,54,29.92,29.74,13,6,30,0.00
2013-8-1,77.5,71.4,66.5,66.8,64.7,63.1,91,80,62,29.94,29.86,6,1,12,0.00
2013-8-2,74.9,65.9,64.3,66.8,63.2,62.2,94,91,76,29.87,29.83,5,2,6,0.00
2013-8-12,78.0,67.2,59.3,65.4,60.1,56.7,98,79,57,29.99,29.92,9,3,16,0.01
2013-8-13,71.5,62.5,52.7,59.5,54.4,49.2,97,77,46,30.16,29.98,9,4,12,0.00
2013-8-14,73.8,61.5,48.2,58.2,52.3,46.0,96,75,46,30.22,30.12,5,1,7,0.00
2013-8-15,59.1,57.1,55.8,54.8,53.8,53.1,93,89,82,30.14,30.12,0,0,0,0.00
2013-8-30,91.3,80.9,76.7,82.1,74.6,72.6,90,82,65,29.76,29.73,8,4,12,0.00
2013-8-31,82.5,74.0,68.1,73.8,70.3,66.7,97,89,71,29.81,29.72,11,4,15,0.09
2013-9-1,80.9,71.6,61.1,73.0,66.4,58.8,100,85,54,29.86,29.73,13,6,17,0.01
2013-9-2,71.4,62.1,51.6,59.5,56.5,49.3,97,83,61,30.02,29.86,10,5,14,0.01
2013-9-3,74.5,58.3,46.4,59.9,52.7,45.0,97,83,55,30.10,30.01,4,1,7,0.00
2013-9-16,62.1,52.0,49.2,52.2,47.5,45.9,89,85,69,30.32,30.27,6,4,11,0.01
2013-9-17,65.4,57.0,46.5,60.4,52.8,44.7,97,87,75,30.30,30.02,13,8,17,0.00
2013-9-18,81.5,70.0,61.6,72.7,65.5,59.6,94,86,74,30.02,29.77,18,9,21,1.62
2013-9-19,86.8,73.5,65.6,71.6,67.9,64.4,98,84,57,29.81,29.66,23,7,25,0.40
2013-9-20,66.3,60.9,57.1,65.9,58.8,53.3,99,93,77,29.87,29.75,14,8,19,0.01
2013-9-29,70.0,61.9,52.1,54.0,48.7,45.0,98,64,44,30.07,29.95,10,3,14,0.01
2013-9-30,74.6,60.2,46.4,57.0,49.2,43.0,92,70,40,29.95,29.76,18,7,25,0.00
2013-10-1,79.3,64.8,59.3,61.0,56.3,50.0,95,75,50,29.95,29.80,9,4,16,0.00
2013-10-2,80.0,66.8,51.9,63.0,50.6,42.0,86,58,34,30.05,29.87,16,8,21,0.00
2013-10-3,78.2,68.7,62.0,70.0,65.1,61.0,98,89,71,29.87,29.75,12,4,20,0.24
2013-10-4,72.0,65.9,62.0,68.0,64.5,61.0,99,95,86,29.94,29.79,19,8,32,1.20
2013-10-5,69.9,61.6,45.7,67.0,56.0,42.0,97,82,57,29.85,29.75,20,5,22,0.00
2013-10-6,48.3,44.7,41.7,43.0,41.4,40.0,97,88,73,29.82,29.71,11,3,15,0.06
2013-10-7,71.5,55.7,42.7,49.0,45.9,42.0,98,74,39,30.05,29.81,16,5,24,0.00
2013-10-8,75.7,59.2,46.0,52.0,46.3,44.0,92,66,32,30.11,30.02,19,6,23,0.00
2013-10-9,72.5,58.7,47.3,51.0,46.8,43.0,93,68,36,30.15,30.06,13,5,19,0.00
2013-10-10,74.2,59.0,45.1,55.0,49.5,42.0,92,73,47,30.12,29.96,14,5,22,0.00
2013-10-11,74.9,64.4,53.2,60.0,55.2,51.0,95,74,50,29.96,29.80,28,12,35,0.00
2013-10-12,68.5,59.4,47.2,59.0,44.9,35.0,89,61,35,30.20,29.80,20,8,29,0.00
2013-10-13,63.5,48.9,36.0,42.0,32.4,-99.9,90,61,32,30.43,30.20,9,-9,13,0.00
2013-10-14,62.6,50.4,34.8,44.0,39.0,31.0,89,67,45,30.40,30.00,22,10,26,0.00
2013-10-15,58.7,53.1,48.6,58.0,47.2,43.0,97,81,65,29.99,29.78,28,13,32,0.14
2013-10-16,48.6,47.0,45.6,46.0,44.8,44.0,96,92,85,29.97,29.83,17,8,25,0.01
2013-10-17,57.8,48.3,43.2,45.0,40.3,35.0,96,76,42,29.95,29.82,11,3,18,0.01
2013-10-18,50.8,44.7,39.7,42.0,36.7,32.0,93,75,51,29.99,29.86,19,8,23,0.00
2013-10-19,50.5,42.9,34.2,40.0,36.8,32.0,95,80,60,29.94,29.78,21,7,26,0.01
2013-10-20,55.4,46.0,31.1,47.4,39.9,29.0,95,80,70,29.87,29.71,15,7,23,0.01
2013-10-21,44.5,37.4,29.2,39.0,29.3,23.0,88,74,50,30.01,29.87,23,9,32,0.00
2013-10-22,38.1,32.9,27.4,36.0,30.4,24.0,96,90,82,30.04,29.95,9,3,14,0.09
2013-10-23,40.5,33.7,25.7,33.0,28.0,24.0,95,81,57,30.11,30.03,15,6,20,0.00
2013-10-24,40.9,33.2,27.5,26.0,24.3,22.0,83,70,51,30.38,30.11,18,5,22,0.00
2013-10-25,52.2,39.1,24.9,33.0,27.4,22.0,92,66,37,30.41,30.01,28,9,29,0.00
2013-10-26,50.4,42.5,32.5,36.0,30.5,26.5,81,63,45,30.13,29.89,22,10,30,0.00
2013-10-27,55.6,40.1,26.0,33.0,29.3,23.7,92,68,40,30.11,29.91,18,4,22,0.00
2013-10-28,50.5,41.3,36.3,39.0,33.8,29.0,84,75,62,30.35,30.02,22,12,27,0.00
2013-10-29,57.8,45.7,34.7,42.4,37.2,31.0,91,73,51,30.35,30.08,17,12,22,0.00
2013-10-30,57.6,49.3,48.6,57.0,41.2,-99.9,99,88,75,30.08,29.67,20,-56,25,0.57
2013-10-31,61.1,31.4,52.1,61.0,-15.7,-99.9,99,52,98,29.66,29.38,17,-463,21,0.12
2013-11-1,48.5,26.3,36.8,43.0,-17.0,-99.9,91,50,75,29.79,29.43,16,-402,23,0.01
2013-11-2,48.3,39.3,32.5,37.0,33.3,29.0,95,80,55,30.17,29.80,22,7,25,0.00
2013-11-3,51.4,41.5,30.7,36.0,32.9,28.0,89,73,53,30.25,30.09,26,12,30,0.00
2013-11-4,51.1,47.7,43.1,46.0,41.2,35.0,89,78,68,30.15,29.99,27,12,30,0.00
2013-11-5,55.3,44.5,44.1,54.0,32.9,-99.9,98,85,89,30.21,29.79,25,-96,32,0.45
2013-11-6,56.5,37.2,28.6,56.0,25.4,-99.9,97,77,54,30.25,29.72,25,-63,28,0.15
2013-11-7,43.5,33.2,25.3,34.0,28.4,23.0,92,83,65,30.30,30.23,17,7,22,0.00
2013-11-8,49.1,37.8,25.1,38.0,29.2,23.0,91,73,50,30.30,29.79,30,12,38,0.00
2013-11-9,52.3,45.7,35.8,41.0,37.3,30.0,83,73,62,30.23,29.80,25,14,33,0.00
2013-11-10,44.7,37.2,26.7,33.0,30.0,24.0,91,76,61,30.40,30.18,15,7,19,0.00
2013-11-11,44.4,25.5,13.9,35.0,3.1,-99.9,94,65,66,30.66,30.09,24,-162,26,0.00
2013-11-12,25.1,16.1,8.5,16.0,2.6,-99.9,88,72,66,30.85,30.66,13,-78,17,0.00
2013-11-13,43.6,30.2,16.9,21.0,13.6,-99.9,82,56,34,30.64,30.10,24,-10,30,0.00
2013-11-14,48.7,39.4,31.9,31.0,25.6,-99.9,72,60,48,30.10,29.90,22,-1,25,0.00
2013-11-15,44.9,20.6,34.6,35.0,-30.6,-99.9,84,39,64,29.94,29.82,15,-469,16,0.00
2013-11-16,60.8,46.4,37.8,57.0,34.9,-99.9,97,83,84,29.82,29.37,28,-80,35,0.08
2013-11-17,57.3,43.9,37.9,55.0,34.2,-99.9,98,84,83,29.85,29.24,27,-60,41,0.65
2013-11-18,39.9,32.6,25.7,34.0,23.1,-99.9,90,77,62,30.31,29.86,28,-31,33,0.00
2013-11-19,41.3,30.5,23.1,31.0,18.9,-99.9,92,75,64,30.34,30.18,20,-54,22,0.00
2013-11-20,37.5,32.3,34.4,36.0,19.7,-99.9,96,79,77,30.17,30.01,27,-82,33,0.08
2013-11-21,40.8,34.9,31.8,38.0,26.7,-99.9,98,88,88,30.34,30.07,17,-51,19,0.01
2013-11-22,31.6,23.5,17.4,30.8,11.9,-99.9,97,80,75,30.59,30.34,21,-76,26,0.00
2013-11-23,19.4,14.0,9.2,16.0,-3.3,-99.9,86,68,63,30.82,30.55,24,-100,27,0.00
2013-11-24,26.0,12.7,4.8,12.0,-20.9,-99.9,88,49,44,30.80,30.35,16,-255,23,0.00
2013-11-25,31.5,23.7,21.3,26.0,8.3,-99.9,93,74,63,30.33,30.10,21,-106,26,0.00
2013-11-26,29.8,20.7,7.3,25.0,11.5,-99.9,91,75,60,30.33,30.10,29,-20,33,0.00
2013-11-27,21.9,13.2,4.1,13.0,1.2,-99.9,85,72,62,30.41,30.22,11,-58,15,0.00
2013-11-28,27.9,20.0,13.6,20.0,11.5,-99.9,88,77,69,30.55,30.15,16,-26,18,0.00
2013-11-29,31.9,19.8,10.5,22.0,0.2,-99.9,91,68,67,30.62,30.32,18,-140,22,0.00
2013-11-30,44.9,28.8,25.0,35.0,9.4,-99.9,93,69,67,30.32,30.07,14,-142,16,0.00
2013-12-1,40.9,28.5,26.6,32.0,9.2,-99.9,94,71,70,30.17,29.97,10,-153,12,0.00
2013-12-2,37.5,23.1,29.7,36.0,-11.3,-99.9,96,61,86,29.96,29.66,18,-322,22,0.03
2013-12-3,41.1,34.6,34.8,41.0,25.9,-99.9,99,90,96,29.68,29.58,18,-76,20,0.01
2013-12-4,48.1,33.5,23.5,48.0,22.7,-99.9,100,88,91,29.82,29.44,27,-93,33,0.02
2013-12-5,23.3,12.3,9.8,21.0,-15.7,-99.9,91,62,75,30.40,29.81,27,-232,32,0.00
2013-12-6,13.1,7.2,3.9,6.0,-14.0,-99.9,84,66,71,30.69,30.38,17,-158,23,0.00
2013-12-7,12.3,6.3,-1.6,3.5,-14.7,-99.9,84,62,61,30.81,30.65,14,-149,18,0.00
2013-12-8,18.9,13.5,10.2,17.0,-2.5,-99.9,93,74,69,30.65,30.04,18,-118,19,0.00
2013-12-9,16.2,3.5,-5.6,14.5,-7.7,-99.9,93,77,75,30.31,30.03,18,-70,24,0.00
2013-12-10,14.3,7.1,-6.5,12.0,-11.0,-99.9,91,69,73,30.33,30.02,26,-128,31,0.00
2013-12-11,14.9,0.3,-7.9,13.0,-19.8,-99.9,92,68,70,30.66,30.30,22,-161,28,0.00
2013-12-12,18.9,9.9,-6.4,12.1,0.3,-99.9,89,77,74,30.61,30.24,15,-46,18,0.00
2013-12-13,24.7,17.0,8.8,20.7,5.8,-99.9,92,80,80,30.24,30.08,23,-73,26,0.00
2013-12-14,22.7,17.4,12.4,19.3,6.1,-99.9,92,80,84,30.14,30.08,20,-70,25,0.00
2013-12-15,12.6,3.8,4.6,9.0,-52.9,-99.9,88,38,79,30.18,30.09,18,-546,23,0.00
2013-12-16,19.8,11.7,9.2,18.4,-11.4,-99.9,94,71,85,30.17,30.04,13,-206,17,0.00
2013-12-17,30.6,13.8,13.8,23.0,-16.2,-99.9,94,63,71,30.21,30.04,25,-270,32,0.00
2013-12-18,38.9,24.5,12.2,29.0,11.8,-99.9,92,74,61,30.20,29.79,24,-68,32,0.00
2013-12-19,32.9,27.6,26.0,30.0,18.0,-99.9,96,84,81,29.92,29.81,21,-64,24,0.00
2013-12-20,30.0,21.6,21.9,29.0,10.1,-99.9,96,85,93,29.90,29.80,19,-98,21,0.00
2013-12-21,26.6,20.2,22.5,26.0,-0.9,-99.9,97,76,93,29.91,29.74,15,-196,27,0.00
2013-12-22,26.4,16.8,5.7,25.4,0.4,-99.9,96,78,86,30.28,29.75,18,-135,22,0.00
2013-12-23,5.2,-3.1,-12.2,1.7,-15.2,-99.9,86,76,78,30.61,30.28,18,-76,20,0.00
2013-12-24,12.1,-2.3,-15.1,10.0,-16.1,-99.9,92,75,76,30.64,30.32,17,-98,19,0.00
2013-12-25,23.8,16.9,12.2,22.0,5.6,-99.9,95,83,79,30.32,30.19,17,-86,23,0.00
2013-12-26,30.7,22.1,14.2,26.0,12.7,-99.9,93,81,80,30.25,30.15,11,-60,14,0.00
2013-12-27,38.6,26.3,13.8,30.0,16.1,-99.9,96,79,71,30.28,30.09,14,-57,18,0.00
2013-12-28,44.0,21.5,26.5,33.0,-20.6,-99.9,91,49,65,30.10,29.80,19,-381,30,0.01
2013-12-29,30.1,7.6,-7.2,28.0,-32.6,-99.9,95,53,75,30.36,29.81,31,-367,37,0.00
2013-12-30,3.6,-3.2,-12.6,1.0,-7.6,-17.0,88,81,65,30.41,30.28,11,3,14,0.00
2013-12-31,6.9,0.8,-10.8,4.0,-21.1,-99.9,89,70,83,30.42,30.30,17,-189,19,0.00
2014-1-1,9.1,6.7,2.7,5.0,2.6,-1.0,87,83,76,30.38,30.31,20,16,24,0.00
2014-1-2,7.5,2.6,-10.0,2.0,-24.3,-99.9,84,61,75,30.53,30.34,17,-224,20,0.00